createdAt,value
2022-12-18T00:01:18.909Z,39.10
2022-12-18T00:03:46.875Z,42.08
2022-12-18T00:06:14.815Z,40.40
2022-12-18T00:08:43.227Z,37.85
2022-12-18T00:11:15.186Z,37.58
2022-12-18T00:13:42.988Z,32.47
2022-12-18T00:16:13.038Z,46.00
2022-12-18T00:18:41.156Z,45.22
2022-12-18T00:21:10.398Z,37.33
2022-12-18T00:23:39.172Z,36.58
2022-12-18T00:26:10.435Z,43.30
2022-12-18T00:28:39.840Z,37.80
2022-12-18T00:31:13.392Z,39.08
2022-12-18T00:33:40.753Z,38.28
2022-12-18T00:36:13.921Z,37.85
2022-12-18T00:38:41.895Z,37.58
2022-12-18T00:41:10.354Z,35.35
2022-12-18T00:43:38.813Z,32.70
2022-12-18T00:46:06.157Z,34.78
2022-12-18T00:48:33.581Z,36.22
2022-12-18T00:51:00.307Z,37.45
2022-12-18T00:53:27.314Z,30.30
2022-12-18T00:55:54.063Z,39.33
2022-12-18T00:58:21.126Z,33.25
2022-12-18T01:00:47.875Z,37.30
2022-12-18T01:03:15.345Z,41.72
2022-12-18T01:05:43.249Z,39.90
2022-12-18T01:08:10.533Z,37.10
2022-12-18T01:10:37.306Z,37.45
2022-12-18T01:13:04.410Z,35.33
2022-12-18T01:15:31.116Z,38.78
2022-12-18T01:17:58.246Z,42.83
2022-12-18T01:20:25.032Z,34.80
2022-12-18T01:22:52.073Z,36.78
2022-12-18T01:25:18.881Z,40.00
2022-12-18T01:27:45.860Z,30.92
2022-12-18T01:30:12.929Z,30.67
2022-12-18T01:32:40.155Z,37.53
2022-12-18T01:35:07.781Z,38.00
2022-12-18T01:37:35.006Z,35.85
2022-12-18T01:40:01.724Z,38.05
2022-12-18T01:42:28.786Z,38.30
2022-12-18T01:44:58.626Z,38.75
2022-12-18T01:47:34.738Z,36.58
2022-12-18T01:50:15.552Z,43.90
2022-12-18T01:52:46.019Z,35.47
2022-12-18T01:55:14.093Z,36.25
2022-12-18T01:57:42.290Z,34.35
2022-12-18T02:00:14.116Z,36.40
2022-12-18T02:02:46.124Z,38.90
2022-12-18T02:05:17.253Z,39.13
2022-12-18T02:08:22.375Z,39.45
2022-12-18T02:11:23.860Z,40.88
2022-12-18T02:14:08.400Z,31.38
2022-12-18T02:16:51.549Z,40.40
2022-12-18T02:19:40.198Z,44.97
2022-12-18T02:22:42.934Z,40.38
2022-12-18T02:25:31.435Z,31.77
2022-12-18T02:28:02.698Z,37.97
2022-12-18T02:30:34.771Z,41.72
2022-12-18T02:33:05.023Z,32.88
2022-12-18T02:35:34.709Z,35.40
2022-12-18T02:38:02.752Z,34.17
2022-12-18T02:40:31.226Z,40.25
2022-12-18T02:43:08.150Z,38.85
2022-12-18T02:45:35.202Z,36.33
2022-12-18T02:48:02.287Z,43.03
2022-12-18T02:50:51.464Z,34.83
2022-12-18T02:53:27.386Z,42.65
2022-12-18T02:56:21.948Z,38.05
2022-12-18T02:59:08.334Z,32.92
2022-12-18T03:01:50.157Z,35.30
2022-12-18T03:04:16.948Z,37.85
2022-12-18T03:06:50.779Z,43.20
2022-12-18T03:09:31.033Z,35.60
2022-12-18T03:12:26.224Z,41.58
2022-12-18T03:15:13.245Z,31.08
2022-12-18T03:18:08.658Z,41.90
2022-12-18T03:20:37.453Z,35.00
2022-12-18T03:23:10.643Z,39.17
2022-12-18T03:25:41.868Z,44.33
2022-12-18T03:28:14.369Z,34.03
2022-12-18T03:30:44.888Z,35.72
2022-12-18T03:33:20.622Z,39.80
2022-12-18T03:35:47.864Z,51.72
2022-12-18T03:38:15.275Z,31.80
2022-12-18T03:41:00.969Z,43.95
2022-12-18T03:43:30.846Z,37.58
2022-12-18T03:46:08.527Z,37.65
2022-12-18T03:49:11.359Z,41.63
2022-12-18T03:51:43.329Z,42.53
2022-12-18T03:54:12.093Z,41.60
2022-12-18T03:56:45.411Z,37.50
2022-12-18T03:59:14.934Z,40.72
2022-12-18T04:01:48.601Z,39.92
2022-12-18T04:04:19.262Z,37.83
2022-12-18T04:06:49.026Z,35.58
2022-12-18T04:09:16.442Z,37.25
2022-12-18T04:11:46.855Z,40.10
2022-12-18T04:14:17.584Z,37.60
2022-12-18T04:16:44.963Z,35.08
2022-12-18T04:19:12.149Z,36.78
2022-12-18T04:21:38.942Z,43.10
2022-12-18T04:24:06.098Z,42.80
2022-12-18T04:26:32.956Z,47.03
2022-12-18T04:28:59.962Z,39.63
2022-12-18T04:31:26.965Z,43.15
2022-12-18T04:33:54.007Z,42.40
2022-12-18T04:36:20.798Z,38.83
2022-12-18T04:38:47.784Z,43.38
2022-12-18T04:41:14.551Z,51.40
2022-12-18T04:43:41.782Z,35.65
2022-12-18T04:46:09.736Z,39.33
2022-12-18T04:48:37.417Z,42.65
2022-12-18T04:51:05.518Z,35.95
2022-12-18T04:53:33.065Z,37.38
2022-12-18T04:56:11.306Z,43.22
2022-12-18T04:58:40.351Z,39.55
2022-12-18T05:01:11.114Z,39.15
2022-12-18T05:03:39.267Z,34.60
2022-12-18T05:06:06.988Z,40.83
2022-12-18T05:08:34.389Z,47.05
2022-12-18T05:11:02.799Z,38.92
2022-12-18T05:13:30.496Z,36.95
2022-12-18T05:15:57.743Z,35.75
2022-12-18T05:18:25.305Z,39.83
2022-12-18T05:20:53.282Z,42.63
2022-12-18T05:23:21.362Z,34.25
2022-12-18T05:25:59.562Z,34.03
2022-12-18T05:28:28.759Z,36.58
2022-12-18T05:30:57.632Z,39.67
2022-12-18T05:33:26.516Z,38.45
2022-12-18T05:35:58.794Z,42.08
2022-12-18T05:38:27.646Z,38.53
2022-12-18T05:40:54.766Z,40.40
2022-12-18T05:43:22.859Z,32.67
2022-12-18T05:45:50.253Z,41.83
2022-12-18T05:48:17.778Z,37.55
2022-12-18T05:50:46.643Z,36.38
2022-12-18T05:53:15.450Z,37.00
2022-12-18T05:55:43.186Z,39.25
2022-12-18T05:58:11.626Z,44.92
2022-12-18T06:00:43.742Z,39.30
2022-12-18T06:03:12.302Z,40.92
2022-12-18T06:05:40.934Z,40.60
2022-12-18T06:08:09.207Z,44.13
2022-12-18T06:10:35.927Z,46.10
2022-12-18T06:13:03.088Z,35.85
2022-12-18T06:15:33.300Z,45.10
2022-12-18T06:18:01.900Z,46.33
2022-12-18T06:20:33.197Z,39.35
2022-12-18T06:23:01.262Z,34.70
2022-12-18T06:25:28.039Z,37.88
2022-12-18T06:27:55.177Z,33.17
2022-12-18T06:30:22.005Z,33.20
2022-12-18T06:32:54.687Z,36.65
2022-12-18T06:35:23.571Z,35.95
2022-12-18T06:37:50.740Z,43.92
2022-12-18T06:40:17.731Z,47.55
2022-12-18T06:42:44.730Z,35.30
2022-12-18T06:45:12.508Z,36.92
2022-12-18T06:47:39.557Z,37.42
2022-12-18T06:50:08.167Z,41.28
2022-12-18T06:52:35.265Z,46.78
2022-12-18T06:55:02.060Z,34.22
2022-12-18T06:57:29.397Z,45.95
2022-12-18T06:59:56.170Z,39.92
2022-12-18T07:02:23.377Z,39.95
2022-12-18T07:04:50.147Z,41.22
2022-12-18T07:07:17.372Z,48.83
2022-12-18T07:09:44.209Z,42.88
2022-12-18T07:12:11.294Z,42.03
2022-12-18T07:14:38.239Z,44.88
2022-12-18T07:17:05.341Z,44.45
2022-12-18T07:19:33.551Z,38.97
2022-12-18T07:22:01.421Z,46.80
2022-12-18T07:24:28.903Z,40.28
2022-12-18T07:26:55.958Z,45.13
2022-12-18T07:29:22.723Z,52.20
2022-12-18T07:31:52.292Z,41.10
2022-12-18T07:34:19.071Z,43.80
2022-12-18T07:36:46.084Z,45.33
2022-12-18T07:39:13.002Z,36.42
2022-12-18T07:41:46.688Z,37.67
2022-12-18T07:44:14.066Z,42.15
2022-12-18T07:46:41.266Z,33.92
2022-12-18T07:49:08.160Z,43.22
2022-12-18T07:51:35.180Z,38.85
2022-12-18T07:54:01.990Z,41.70
2022-12-18T07:56:31.372Z,40.08
2022-12-18T07:58:59.922Z,39.88
2022-12-18T08:01:27.368Z,42.45
2022-12-18T08:03:54.349Z,44.08
2022-12-18T08:06:23.315Z,34.30
2022-12-18T08:08:54.950Z,37.15
2022-12-18T08:11:23.729Z,34.20
2022-12-18T08:13:50.619Z,38.17
2022-12-18T08:16:17.989Z,34.17
2022-12-18T08:18:44.860Z,42.05
2022-12-18T08:21:14.111Z,36.95
2022-12-18T08:23:43.257Z,38.38
2022-12-18T08:26:12.654Z,42.88
2022-12-18T08:28:40.008Z,42.10
2022-12-18T08:31:10.362Z,39.53
2022-12-18T08:33:38.845Z,40.15
2022-12-18T08:36:07.033Z,44.88
2022-12-18T08:38:34.271Z,45.38
2022-12-18T08:41:10.127Z,38.22
2022-12-18T08:43:55.936Z,42.15
2022-12-18T08:46:25.719Z,45.20
2022-12-18T08:48:53.485Z,37.47
2022-12-18T08:51:20.942Z,38.63
2022-12-18T08:53:48.225Z,37.83
2022-12-18T08:56:15.986Z,34.97
2022-12-18T08:58:43.722Z,42.80
2022-12-18T09:01:13.026Z,40.47
2022-12-18T09:03:41.157Z,36.53
2022-12-18T09:06:08.984Z,39.22
2022-12-18T09:08:36.384Z,41.83
2022-12-18T09:11:04.116Z,35.65
2022-12-18T09:13:30.850Z,44.97
2022-12-18T09:15:57.929Z,39.17
2022-12-18T09:18:25.326Z,38.75
2022-12-18T09:20:53.892Z,39.92
2022-12-18T09:23:23.441Z,51.03
2022-12-18T09:25:50.511Z,42.15
2022-12-18T09:28:19.352Z,47.13
2022-12-18T09:30:48.930Z,48.88
2022-12-18T09:33:17.222Z,37.53
2022-12-18T09:35:46.204Z,40.75
2022-12-18T09:38:15.733Z,38.05
2022-12-18T09:40:49.690Z,54.88
2022-12-18T09:43:24.294Z,50.00
2022-12-18T09:46:06.156Z,41.67
2022-12-18T09:48:38.122Z,38.10
2022-12-18T09:51:14.426Z,46.55
2022-12-18T09:53:45.534Z,44.47
2022-12-18T09:56:19.357Z,39.25
2022-12-18T09:59:03.701Z,38.55
2022-12-18T10:01:41.460Z,37.75
2022-12-18T10:04:10.642Z,31.38
2022-12-18T10:06:54.649Z,42.50
2022-12-18T10:09:47.735Z,44.97
2022-12-18T10:12:32.766Z,33.85
2022-12-18T10:15:20.557Z,38.25
2022-12-18T10:18:00.341Z,38.60
2022-12-18T10:20:44.769Z,38.30
2022-12-18T10:23:23.074Z,40.17
2022-12-18T10:26:10.029Z,45.88
2022-12-18T10:28:40.321Z,39.75
2022-12-18T10:31:33.770Z,37.58
2022-12-18T10:34:00.844Z,39.93
2022-12-18T10:36:27.730Z,45.47
2022-12-18T10:38:54.775Z,44.25
2022-12-18T10:41:26.917Z,41.50
2022-12-18T10:44:21.381Z,35.30
2022-12-18T10:46:51.370Z,32.50
2022-12-18T10:49:28.638Z,31.85
2022-12-18T10:52:19.213Z,29.65
2022-12-18T10:55:06.261Z,37.63
2022-12-18T10:57:42.446Z,33.67
2022-12-18T11:00:21.893Z,36.58
2022-12-18T11:02:49.215Z,38.75
2022-12-18T11:05:27.903Z,38.80
2022-12-18T11:07:55.394Z,39.78
2022-12-18T11:10:29.236Z,37.63
2022-12-18T11:12:56.872Z,37.88
2022-12-18T11:15:31.642Z,34.15
2022-12-18T11:17:59.248Z,33.63
2022-12-18T11:20:33.437Z,38.70
2022-12-18T11:23:02.649Z,33.22
2022-12-18T11:25:34.619Z,34.78
2022-12-18T11:28:04.835Z,32.75
2022-12-18T11:30:37.635Z,38.65
2022-12-18T11:33:13.385Z,31.83
2022-12-18T11:35:50.600Z,33.67
2022-12-18T11:38:32.003Z,34.45
2022-12-18T11:41:05.358Z,36.38
2022-12-18T11:43:53.914Z,32.35
2022-12-18T11:46:46.880Z,29.63
2022-12-18T11:49:20.836Z,30.15
2022-12-18T11:52:03.812Z,32.10
2022-12-18T11:54:30.751Z,28.92
2022-12-18T11:57:27.433Z,35.30
2022-12-18T12:00:15.906Z,33.20
2022-12-18T12:03:13.224Z,30.60
2022-12-18T12:06:21.454Z,34.28
2022-12-18T12:09:00.802Z,30.67
2022-12-18T12:12:04.481Z,34.85
2022-12-18T12:14:37.705Z,28.90
2022-12-18T12:17:31.909Z,29.37
2022-12-18T12:20:20.692Z,34.30
2022-12-18T12:22:47.387Z,29.95
2022-12-18T12:25:42.409Z,33.58
2022-12-18T12:28:27.998Z,35.15
2022-12-18T12:31:11.128Z,32.75
2022-12-18T12:33:47.578Z,30.98
2022-12-18T12:36:25.757Z,32.05
2022-12-18T12:39:01.658Z,31.20
2022-12-18T12:41:53.324Z,35.08
2022-12-18T12:44:34.688Z,29.45
2022-12-18T12:47:29.485Z,33.63
2022-12-18T12:52:30.522Z,30.50
2022-12-18T12:54:58.450Z,29.38
2022-12-18T12:57:31.562Z,28.42
2022-12-18T12:59:59.068Z,41.27
2022-12-18T13:02:48.380Z,33.75
2022-12-18T13:05:29.315Z,34.05
2022-12-18T13:08:10.512Z,36.58
2022-12-18T13:10:38.799Z,31.92
2022-12-18T13:13:10.458Z,30.80
2022-12-18T13:15:41.912Z,34.05
2022-12-18T13:18:09.142Z,34.90
2022-12-18T13:20:43.080Z,39.00
2022-12-18T13:23:26.562Z,30.33
2022-12-18T13:26:10.840Z,27.02
2022-12-18T13:28:49.727Z,29.85
2022-12-18T13:31:42.871Z,32.20
2022-12-18T13:34:28.084Z,31.83
2022-12-18T13:37:17.643Z,39.95
2022-12-18T13:39:44.909Z,32.58
2022-12-18T13:42:32.611Z,30.55
2022-12-18T13:44:59.882Z,33.53
2022-12-18T13:47:36.172Z,30.60
2022-12-18T13:50:11.916Z,31.27
2022-12-18T13:52:40.412Z,34.15
2022-12-18T13:55:17.262Z,29.40
2022-12-18T13:57:43.999Z,32.83
2022-12-18T14:00:26.250Z,34.33
2022-12-18T14:02:53.312Z,31.95
2022-12-18T14:05:30.738Z,33.85
2022-12-18T14:08:06.907Z,33.85
2022-12-18T14:10:48.433Z,31.08
2022-12-18T14:13:25.185Z,34.58
2022-12-18T14:15:52.647Z,36.13
2022-12-18T14:18:24.351Z,33.58
2022-12-18T14:20:54.109Z,40.80
2022-12-18T14:23:39.092Z,31.50
2022-12-18T14:26:30.073Z,40.60
2022-12-18T14:28:59.159Z,29.52
2022-12-18T14:31:28.175Z,36.50
2022-12-18T14:33:55.438Z,46.47
2022-12-18T14:36:25.545Z,41.97
2022-12-18T14:38:54.945Z,47.38
2022-12-18T14:41:23.495Z,45.17
2022-12-18T14:43:55.393Z,49.88
2022-12-18T14:46:36.866Z,51.92
2022-12-18T14:49:22.614Z,49.20
2022-12-18T14:51:52.205Z,45.00
2022-12-18T14:54:20.771Z,46.78
2022-12-18T14:56:52.139Z,50.10
2022-12-18T14:59:24.748Z,45.63
2022-12-18T15:01:55.107Z,47.95
2022-12-18T15:04:36.103Z,53.30
2022-12-18T15:07:11.908Z,48.45
2022-12-18T15:09:41.077Z,48.83
2022-12-18T15:12:44.879Z,51.10
2022-12-18T15:15:47.961Z,51.40
2022-12-18T15:18:21.030Z,49.40
2022-12-18T15:20:50.900Z,42.00
2022-12-18T15:23:25.408Z,54.95
2022-12-18T15:26:01.557Z,45.95
2022-12-18T15:28:35.861Z,39.53
2022-12-18T15:31:04.342Z,52.00
2022-12-18T15:33:34.720Z,46.30
2022-12-18T15:36:09.529Z,48.28
2022-12-18T15:38:37.244Z,48.55
2022-12-18T15:41:14.605Z,50.17
2022-12-18T15:43:42.345Z,49.40
2022-12-18T15:46:15.045Z,51.22
2022-12-18T15:48:45.566Z,60.50
2022-12-18T15:51:22.568Z,48.60
2022-12-18T15:53:52.876Z,45.08
2022-12-18T15:56:38.100Z,43.63
2022-12-18T15:59:16.330Z,48.53
2022-12-18T16:01:46.193Z,47.60
2022-12-18T16:04:15.342Z,45.05
2022-12-18T16:07:05.627Z,52.83
2022-12-18T16:09:29.588Z,50.75
2022-12-18T16:11:56.360Z,49.60
2022-12-18T16:14:27.610Z,55.88
2022-12-18T16:16:57.322Z,51.75
2022-12-18T16:19:24.755Z,50.38
2022-12-18T16:21:53.734Z,46.13
2022-12-18T16:24:23.518Z,56.45
2022-12-18T16:26:52.427Z,54.92
2022-12-18T16:29:25.598Z,51.83
2022-12-18T16:31:53.075Z,48.90
2022-12-18T16:34:29.309Z,50.42
2022-12-18T16:37:07.522Z,43.17
2022-12-18T16:39:35.935Z,48.15
2022-12-18T16:42:17.248Z,47.47
2022-12-18T16:44:44.913Z,43.05
2022-12-18T16:47:13.842Z,51.38
2022-12-18T16:49:45.873Z,51.38
2022-12-18T16:52:12.925Z,53.10
2022-12-18T16:54:39.952Z,49.88
2022-12-18T16:57:06.931Z,41.70
2022-12-18T16:59:34.959Z,49.83
2022-12-18T17:02:02.102Z,54.25
2022-12-18T17:04:29.319Z,46.92
2022-12-18T17:06:56.085Z,52.20
2022-12-18T17:09:26.422Z,55.08
2022-12-18T17:11:54.119Z,40.08
2022-12-18T17:14:23.636Z,40.10
2022-12-18T17:17:19.344Z,42.42
2022-12-18T17:19:38.798Z,53.15
2022-12-18T17:22:05.601Z,51.35
2022-12-18T17:24:35.210Z,52.10
2022-12-18T17:27:03.630Z,45.05
2022-12-18T17:29:30.920Z,51.72
2022-12-18T17:32:00.172Z,48.13
2022-12-18T17:34:28.225Z,46.10
2022-12-18T17:36:55.829Z,50.55
2022-12-18T17:39:22.978Z,56.28
2022-12-18T17:41:50.260Z,50.45
2022-12-18T17:44:18.034Z,51.45
2022-12-18T17:46:46.198Z,47.17
2022-12-18T17:49:14.113Z,57.10
2022-12-18T17:51:43.071Z,61.60
2022-12-18T17:54:11.162Z,61.42
2022-12-18T17:56:38.614Z,70.82
2022-12-18T17:59:07.195Z,67.25
2022-12-18T18:01:37.285Z,57.03
2022-12-18T18:04:07.404Z,67.18
2022-12-18T18:06:34.464Z,58.42
2022-12-18T18:09:11.785Z,62.42
2022-12-18T18:12:03.776Z,63.45
2022-12-18T18:14:31.524Z,64.40
2022-12-18T18:17:04.287Z,68.50
2022-12-18T18:21:58.982Z,59.30
2022-12-18T18:24:26.356Z,68.97
2022-12-18T18:26:53.371Z,61.85
2022-12-18T18:29:23.671Z,58.35
2022-12-18T18:31:52.925Z,69.25
2022-12-18T18:34:24.998Z,68.90
2022-12-18T18:36:52.197Z,73.60
2022-12-18T18:39:19.919Z,72.82
2022-12-18T18:41:48.562Z,75.25
2022-12-18T18:44:26.363Z,74.05
2022-12-18T18:46:55.198Z,89.00
2022-12-18T18:49:27.573Z,79.82
2022-12-18T18:51:55.439Z,90.35
2022-12-18T18:54:22.675Z,78.50
2022-12-18T18:59:37.447Z,79.13
2022-12-18T19:02:05.006Z,77.13
2022-12-18T19:04:33.655Z,79.95
2022-12-18T19:07:00.953Z,83.55
2022-12-18T19:09:28.395Z,85.70
2022-12-18T19:12:14.344Z,84.50
2022-12-18T19:14:41.584Z,82.18
2022-12-18T19:17:09.773Z,82.45
2022-12-18T19:19:37.038Z,85.18
2022-12-18T19:22:04.145Z,81.82
2022-12-18T19:24:31.500Z,76.65
2022-12-18T19:26:58.356Z,89.10
2022-12-18T19:29:25.651Z,81.75
2022-12-18T19:31:52.682Z,76.85
2022-12-18T19:34:20.271Z,80.90
2022-12-18T19:36:47.227Z,81.65
2022-12-18T19:39:17.133Z,71.18
2022-12-18T19:41:44.769Z,74.13
2022-12-18T19:44:14.018Z,83.32
2022-12-18T19:46:42.441Z,72.18
2022-12-18T19:49:11.001Z,80.88
2022-12-18T19:51:38.788Z,76.55
2022-12-18T19:54:05.949Z,73.43
2022-12-18T19:56:34.991Z,79.72
2022-12-18T19:59:03.434Z,85.00
2022-12-18T20:01:30.942Z,78.70
2022-12-18T20:03:58.813Z,86.07
2022-12-18T20:06:31.380Z,85.95
2022-12-18T20:09:06.669Z,91.88
2022-12-18T20:11:41.397Z,83.28
2022-12-18T20:14:13.692Z,91.40
2022-12-18T20:16:41.014Z,87.25
2022-12-18T20:19:09.940Z,88.00
2022-12-18T20:21:37.619Z,94.82
2022-12-18T20:24:05.057Z,84.50
2022-12-18T20:26:31.849Z,88.47
2022-12-18T20:28:58.877Z,93.97
2022-12-18T20:31:25.734Z,81.35
2022-12-18T20:33:54.465Z,92.55
2022-12-18T20:36:25.890Z,87.15
2022-12-18T20:38:55.675Z,94.07
2022-12-18T20:41:25.216Z,78.43
2022-12-18T20:43:52.303Z,82.03
2022-12-18T20:46:19.313Z,81.45
2022-12-18T20:48:47.767Z,88.68
2022-12-18T20:51:17.274Z,89.80
2022-12-18T20:53:45.606Z,79.85
2022-12-18T20:56:21.273Z,82.57
2022-12-18T20:58:50.384Z,83.97
2022-12-18T21:01:20.942Z,91.15
2022-12-18T21:03:49.159Z,81.07
2022-12-18T21:06:18.560Z,85.90
2022-12-18T21:08:46.157Z,84.68
2022-12-18T21:11:44.105Z,87.03
2022-12-18T21:14:16.883Z,87.07
2022-12-18T21:16:44.451Z,90.35
2022-12-18T21:19:12.902Z,76.82
2022-12-18T21:21:40.483Z,84.80
2022-12-18T21:24:08.233Z,73.35
2022-12-18T21:26:35.065Z,72.13
2022-12-18T21:29:04.777Z,72.50
2022-12-18T21:31:35.295Z,83.68
2022-12-18T21:34:03.609Z,84.25
2022-12-18T21:36:31.872Z,77.60
2022-12-18T21:38:59.711Z,93.18
2022-12-18T21:41:46.093Z,76.63
2022-12-18T21:44:17.977Z,89.68
2022-12-18T21:46:52.989Z,77.57
2022-12-18T21:49:23.470Z,81.55
2022-12-18T21:51:55.660Z,83.93
2022-12-18T21:54:23.646Z,86.93
2022-12-18T21:56:55.735Z,86.85
2022-12-18T21:59:38.525Z,91.68
2022-12-18T22:02:08.326Z,98.05
2022-12-18T22:04:35.862Z,83.47
2022-12-18T22:07:06.112Z,85.22
2022-12-18T22:09:34.056Z,72.78
2022-12-18T22:12:01.199Z,85.07
2022-12-18T22:14:28.413Z,91.03
2022-12-18T22:16:58.422Z,88.80
2022-12-18T22:19:25.741Z,85.22
2022-12-18T22:21:53.393Z,77.07
2022-12-18T22:24:27.276Z,99.05
2022-12-18T22:26:56.195Z,80.72
2022-12-18T22:29:47.866Z,78.28
2022-12-18T22:32:22.228Z,80.85
2022-12-18T22:35:07.940Z,75.72
2022-12-18T22:37:37.294Z,89.65
2022-12-18T22:40:06.052Z,76.18
2022-12-18T22:42:34.271Z,85.50
2022-12-18T22:45:03.720Z,79.53
2022-12-18T22:47:30.868Z,71.22
2022-12-18T22:49:58.426Z,71.57
2022-12-18T22:52:25.807Z,71.57
2022-12-18T22:54:54.215Z,83.97
2022-12-18T22:57:22.661Z,73.97
2022-12-18T22:59:50.801Z,76.10
2022-12-18T23:02:19.054Z,84.22
2022-12-18T23:04:47.615Z,85.38
2022-12-18T23:07:15.088Z,88.97
2022-12-18T23:09:42.248Z,80.07
2022-12-18T23:12:15.137Z,80.22
2022-12-18T23:14:42.798Z,72.53
2022-12-18T23:17:09.606Z,75.72
2022-12-18T23:19:36.831Z,81.88
2022-12-18T23:22:08.599Z,80.25
2022-12-18T23:24:41.135Z,72.43
2022-12-18T23:27:11.544Z,92.95
2022-12-18T23:29:40.404Z,76.63
2022-12-18T23:32:07.701Z,69.30
2022-12-18T23:34:34.895Z,78.10
2022-12-18T23:37:03.579Z,72.78
2022-12-18T23:39:30.704Z,71.32
2022-12-18T23:41:58.539Z,72.57
2022-12-18T23:44:25.756Z,67.47
2022-12-18T23:46:52.808Z,71.38
2022-12-18T23:49:19.973Z,74.50
2022-12-18T23:51:49.908Z,72.82
2022-12-18T23:54:17.000Z,77.90
2022-12-18T23:56:46.301Z,75.63
2022-12-18T23:59:13.970Z,80.57
